createdAt,value
2023-01-17T00:01:36.272Z,2.22
2023-01-17T00:04:28.754Z,2.38
2023-01-17T00:07:28.790Z,2.25
2023-01-17T00:10:12.738Z,2.25
2023-01-17T00:12:55.112Z,2.30
2023-01-17T00:15:32.947Z,2.50
2023-01-17T00:18:07.438Z,2.05
2023-01-17T00:21:03.190Z,1.85
2023-01-17T00:26:31.812Z,1.63
2023-01-17T00:29:08.475Z,1.80
2023-01-17T00:31:44.293Z,2.10
2023-01-17T00:34:15.198Z,2.78
2023-01-17T00:36:44.412Z,1.90
2023-01-17T00:39:18.895Z,2.25
2023-01-17T00:41:51.934Z,2.10
2023-01-17T00:44:40.576Z,1.92
2023-01-17T00:47:31.982Z,1.90
2023-01-17T00:50:31.292Z,1.80
2023-01-17T00:53:25.080Z,1.90
2023-01-17T00:56:34.245Z,1.80
2023-01-17T00:59:32.311Z,1.77
2023-01-17T01:02:30.292Z,1.92
2023-01-17T01:05:19.953Z,2.15
2023-01-17T01:08:11.421Z,1.98
2023-01-17T01:11:11.979Z,2.00
2023-01-17T01:14:03.821Z,2.10
2023-01-17T01:16:54.356Z,2.10
2023-01-17T01:19:51.539Z,1.90
2023-01-17T01:22:48.294Z,1.75
2023-01-17T01:25:39.758Z,1.85
2023-01-17T01:28:42.359Z,2.00
2023-01-17T01:31:33.005Z,1.90
2023-01-17T01:34:07.340Z,1.92
2023-01-17T01:36:36.356Z,2.13
2023-01-17T01:39:08.252Z,2.15
2023-01-17T01:41:41.787Z,2.10
2023-01-17T01:45:33.740Z,2.50
2023-01-17T01:48:56.686Z,2.20
2023-01-17T01:52:02.635Z,2.10
2023-01-17T01:54:48.365Z,2.28
2023-01-17T01:57:24.432Z,2.50
2023-01-17T02:00:09.045Z,2.85
2023-01-17T02:02:44.702Z,2.20
2023-01-17T02:05:23.949Z,2.25
2023-01-17T02:08:02.462Z,2.30
2023-01-17T02:10:40.033Z,1.85
2023-01-17T02:13:12.074Z,2.03
2023-01-17T02:16:15.465Z,2.10
2023-01-17T02:19:10.231Z,1.85
2023-01-17T02:22:30.253Z,2.08
2023-01-17T02:25:10.559Z,1.80
2023-01-17T02:28:00.393Z,2.10
2023-01-17T02:30:48.244Z,2.30
2023-01-17T02:33:38.035Z,2.35
2023-01-17T02:36:24.026Z,2.00
2023-01-17T02:39:23.518Z,2.13
2023-01-17T02:42:06.590Z,2.08
2023-01-17T02:44:46.513Z,2.60
2023-01-17T02:47:39.589Z,2.65
2023-01-17T02:50:20.871Z,2.17
2023-01-17T02:53:05.225Z,2.40
2023-01-17T02:55:59.699Z,2.70
2023-01-17T02:58:56.201Z,2.33
2023-01-17T03:02:26.077Z,2.50
2023-01-17T03:05:10.267Z,2.28
2023-01-17T03:07:45.162Z,2.42
2023-01-17T03:10:20.244Z,2.50
2023-01-17T03:12:59.323Z,2.60
2023-01-17T03:15:30.449Z,2.20
2023-01-17T03:18:07.076Z,2.70
2023-01-17T03:20:36.485Z,2.58
2023-01-17T03:23:06.643Z,2.33
2023-01-17T03:25:44.059Z,2.60
2023-01-17T03:28:15.304Z,2.60
2023-01-17T03:30:44.300Z,2.30
2023-01-17T03:33:22.397Z,2.25
2023-01-17T03:38:23.439Z,2.30
2023-01-17T03:40:59.212Z,2.05
2023-01-17T03:43:38.406Z,2.40
2023-01-17T03:46:22.609Z,2.33
2023-01-17T03:48:57.998Z,2.10
2023-01-17T03:51:31.601Z,2.40
2023-01-17T03:54:02.466Z,2.28
2023-01-17T03:56:35.491Z,2.75
2023-01-17T03:59:12.978Z,2.50
2023-01-17T04:01:48.464Z,2.67
2023-01-17T04:06:50.929Z,2.10
2023-01-17T04:09:22.648Z,2.30
2023-01-17T04:11:54.169Z,2.17
2023-01-17T04:14:24.083Z,2.47
2023-01-17T04:17:00.218Z,2.60
2023-01-17T04:19:38.292Z,2.67
2023-01-17T04:22:11.666Z,2.90
2023-01-17T04:24:40.324Z,2.90
2023-01-17T04:27:19.595Z,2.75
2023-01-17T04:29:51.548Z,2.65
2023-01-17T04:32:22.974Z,2.60
2023-01-17T04:34:52.591Z,2.80
2023-01-17T04:37:24.750Z,3.25
2023-01-17T04:40:07.872Z,3.05
2023-01-17T04:42:36.696Z,2.83
2023-01-17T04:45:10.806Z,2.53
2023-01-17T04:47:40.876Z,2.70
2023-01-17T04:50:12.429Z,2.70
2023-01-17T04:52:43.557Z,2.90
2023-01-17T04:55:19.964Z,2.80
2023-01-17T04:57:50.586Z,2.90
2023-01-17T05:00:24.400Z,2.80
2023-01-17T05:03:00.269Z,3.00
2023-01-17T05:05:38.628Z,2.50
2023-01-17T05:08:09.019Z,2.50
2023-01-17T05:10:50.006Z,2.53
2023-01-17T05:13:23.245Z,2.35
2023-01-17T05:15:55.094Z,2.10
2023-01-17T05:18:26.936Z,2.13
2023-01-17T05:21:06.872Z,2.17
2023-01-17T05:23:36.553Z,2.47
2023-01-17T05:26:10.721Z,2.22
2023-01-17T05:28:41.157Z,2.42
2023-01-17T05:31:11.928Z,2.40
2023-01-17T05:33:41.171Z,2.40
2023-01-17T05:36:12.618Z,2.50
2023-01-17T05:38:42.747Z,2.60
2023-01-17T05:41:14.235Z,2.45
2023-01-17T05:43:44.331Z,2.50
2023-01-17T05:46:19.739Z,2.58
2023-01-17T05:48:51.916Z,2.45
2023-01-17T05:51:21.113Z,2.80
2023-01-17T05:53:54.561Z,2.42
2023-01-17T05:56:30.471Z,2.40
2023-01-17T05:59:06.767Z,2.50
2023-01-17T06:01:36.336Z,2.38
2023-01-17T06:04:08.476Z,2.30
2023-01-17T06:06:57.225Z,2.13
2023-01-17T06:09:42.848Z,2.10
2023-01-17T06:12:16.756Z,1.85
2023-01-17T06:14:56.104Z,2.15
2023-01-17T06:17:31.433Z,2.45
2023-01-17T06:20:03.807Z,2.28
2023-01-17T06:22:38.681Z,2.15
2023-01-17T06:25:08.571Z,2.20
2023-01-17T06:27:40.136Z,2.30
2023-01-17T06:30:18.243Z,2.40
2023-01-17T06:32:59.944Z,2.38
2023-01-17T06:35:31.787Z,2.30
2023-01-17T06:38:06.787Z,2.30
2023-01-17T06:40:36.594Z,2.15
2023-01-17T06:43:11.418Z,2.25
2023-01-17T06:45:44.593Z,2.22
2023-01-17T06:48:15.673Z,2.13
2023-01-17T06:50:48.829Z,2.17
2023-01-17T06:53:22.588Z,2.45
2023-01-17T06:55:54.441Z,2.13
2023-01-17T06:58:27.191Z,2.20
2023-01-17T07:01:02.184Z,2.30
2023-01-17T07:03:33.582Z,2.30
2023-01-17T07:06:08.549Z,2.38
2023-01-17T07:08:39.536Z,2.42
2023-01-17T07:11:10.976Z,2.45
2023-01-17T07:13:43.653Z,2.10
2023-01-17T07:16:13.025Z,2.15
2023-01-17T07:18:43.570Z,2.30
2023-01-17T07:21:17.095Z,2.50
2023-01-17T07:26:18.762Z,1.92
2023-01-17T07:28:50.753Z,2.10
2023-01-17T07:31:21.299Z,2.30
2023-01-17T07:33:52.724Z,2.08
2023-01-17T07:36:27.876Z,2.22
2023-01-17T07:39:05.436Z,2.30
2023-01-17T07:41:42.912Z,2.17
2023-01-17T07:44:37.200Z,2.25
2023-01-17T07:48:31.654Z,2.03
2023-01-17T07:51:14.663Z,2.13
2023-01-17T07:53:47.599Z,1.92
2023-01-17T07:56:21.364Z,2.25
2023-01-17T07:58:55.032Z,2.13
2023-01-17T08:01:26.782Z,2.35
2023-01-17T08:04:15.850Z,2.20
2023-01-17T08:06:50.364Z,2.20
2023-01-17T08:09:32.113Z,2.33
2023-01-17T08:12:11.364Z,2.55
2023-01-17T08:15:08.680Z,2.40
2023-01-17T08:17:46.668Z,2.15
2023-01-17T08:20:19.148Z,2.20
2023-01-17T08:23:04.810Z,2.30
2023-01-17T08:25:44.147Z,2.20
2023-01-17T08:28:23.960Z,2.30
2023-01-17T08:30:55.065Z,2.22
2023-01-17T08:33:31.576Z,1.90
2023-01-17T08:36:06.842Z,2.13
2023-01-17T08:41:11.049Z,2.28
2023-01-17T08:43:48.873Z,1.80
2023-01-17T08:46:23.376Z,1.98
2023-01-17T08:49:15.892Z,2.10
2023-01-17T08:51:47.421Z,2.05
2023-01-17T08:59:51.130Z,1.98
2023-01-17T09:05:08.897Z,2.00
2023-01-17T09:07:50.958Z,2.00
2023-01-17T09:10:20.690Z,1.90
2023-01-17T09:12:52.350Z,2.38
2023-01-17T09:15:24.302Z,2.17
2023-01-17T09:18:11.343Z,2.20
2023-01-17T09:20:42.882Z,2.20
2023-01-17T09:23:12.647Z,2.10
2023-01-17T09:25:52.364Z,2.20
2023-01-17T09:28:22.976Z,2.53
2023-01-17T09:30:56.636Z,2.35
2023-01-17T09:33:41.254Z,2.35
2023-01-17T09:36:16.235Z,2.53
2023-01-17T09:38:50.940Z,2.40
2023-01-17T09:41:24.210Z,3.25
2023-01-17T09:44:16.778Z,3.70
2023-01-17T09:46:50.979Z,2.90
2023-01-17T09:49:51.322Z,2.53
2023-01-17T09:52:28.529Z,2.58
2023-01-17T09:55:18.907Z,2.40
2023-01-17T09:58:15.206Z,2.25
2023-01-17T10:01:11.438Z,2.10
2023-01-17T10:04:09.218Z,2.15
2023-01-17T10:07:06.974Z,2.47
2023-01-17T10:10:08.647Z,1.92
2023-01-17T10:12:48.110Z,2.30
2023-01-17T10:16:08.395Z,2.45
2023-01-17T10:19:04.761Z,2.40
2023-01-17T10:22:12.776Z,2.20
2023-01-17T10:25:48.915Z,2.35
2023-01-17T10:28:52.639Z,2.10
2023-01-17T10:31:38.331Z,2.22
2023-01-17T10:34:26.324Z,2.28
2023-01-17T10:37:26.594Z,2.35
2023-01-17T10:40:26.713Z,2.28
2023-01-17T10:43:32.728Z,2.08
2023-01-17T10:46:05.219Z,2.25
2023-01-17T10:48:50.986Z,2.20
2023-01-17T10:52:04.777Z,2.40
2023-01-17T10:55:12.888Z,2.22
2023-01-17T10:57:53.569Z,2.08
2023-01-17T11:00:52.674Z,2.20
2023-01-17T11:03:22.805Z,2.40
2023-01-17T11:06:20.544Z,2.20
2023-01-17T11:09:01.395Z,2.40
2023-01-17T11:11:35.089Z,2.05
2023-01-17T11:14:20.632Z,2.40
2023-01-17T11:17:13.139Z,2.20
2023-01-17T11:19:54.811Z,2.50
2023-01-17T11:22:32.160Z,2.20
2023-01-17T11:25:08.661Z,2.08
2023-01-17T11:27:46.865Z,2.25
2023-01-17T11:30:23.546Z,2.50
2023-01-17T11:33:11.305Z,2.20
2023-01-17T11:35:49.013Z,2.40
2023-01-17T11:38:26.751Z,2.63
2023-01-17T11:41:31.545Z,2.55
2023-01-17T11:44:20.948Z,2.25
2023-01-17T11:47:10.985Z,2.47
2023-01-17T11:49:49.301Z,2.22
2023-01-17T11:52:34.710Z,2.38
2023-01-17T11:55:09.285Z,2.42
2023-01-17T12:00:31.241Z,2.17
2023-01-17T12:03:18.842Z,2.17
2023-01-17T12:06:14.519Z,1.98
2023-01-17T12:09:06.567Z,2.30
2023-01-17T12:12:40.593Z,2.15
2023-01-17T12:15:52.624Z,2.20
2023-01-17T12:18:42.400Z,2.20
2023-01-17T12:21:32.988Z,2.30
2023-01-17T12:24:36.641Z,2.13
2023-01-17T12:27:34.568Z,2.30
2023-01-17T12:30:32.307Z,2.15
2023-01-17T12:33:15.812Z,2.92
2023-01-17T12:35:54.495Z,2.15
2023-01-17T12:38:43.045Z,2.13
2023-01-17T12:41:35.500Z,2.10
2023-01-17T12:44:09.156Z,2.50
2023-01-17T12:46:52.755Z,2.58
2023-01-17T12:50:15.879Z,2.30
2023-01-17T12:53:20.692Z,2.30
2023-01-17T12:56:03.212Z,2.13
2023-01-17T12:59:07.097Z,2.58
2023-01-17T13:01:43.049Z,2.40
2023-01-17T13:04:57.748Z,2.17
2023-01-17T13:07:38.502Z,2.80
2023-01-17T13:10:24.421Z,3.20
2023-01-17T13:13:25.103Z,2.65
2023-01-17T13:16:37.232Z,2.58
2023-01-17T13:19:31.984Z,2.38
2023-01-17T13:22:21.622Z,2.30
2023-01-17T13:25:38.963Z,2.72
2023-01-17T13:28:53.589Z,2.30
2023-01-17T13:32:00.200Z,2.20
2023-01-17T13:35:20.959Z,2.03
2023-01-17T13:38:23.396Z,2.10
2023-01-17T13:41:43.623Z,2.13
2023-01-17T13:44:48.184Z,2.40
2023-01-17T13:47:24.362Z,2.28
2023-01-17T13:50:47.700Z,2.25
2023-01-17T13:53:47.862Z,2.45
2023-01-17T13:56:40.396Z,2.53
2023-01-17T14:00:11.948Z,2.72
2023-01-17T14:03:53.187Z,3.03
2023-01-17T14:06:48.073Z,3.00
2023-01-17T14:09:49.432Z,3.10
2023-01-17T14:12:21.092Z,3.85
2023-01-17T14:15:15.268Z,4.65
2023-01-17T14:17:54.509Z,3.80
2023-01-17T14:20:44.954Z,3.00
2023-01-17T14:23:25.103Z,2.55
2023-01-17T14:26:36.695Z,2.67
2023-01-17T14:29:45.060Z,2.67
2023-01-17T14:32:40.177Z,3.28
2023-01-17T14:35:35.055Z,3.40
2023-01-17T14:41:57.014Z,3.47
2023-01-17T14:44:44.020Z,3.45
2023-01-17T14:47:20.905Z,3.22
2023-01-17T14:50:21.498Z,3.13
2023-01-17T14:53:32.394Z,2.92
2023-01-17T14:56:20.338Z,2.72
2023-01-17T14:59:19.011Z,2.58
2023-01-17T15:02:08.369Z,2.40
2023-01-17T15:04:45.975Z,2.45
2023-01-17T15:07:21.456Z,2.50
2023-01-17T15:09:56.678Z,2.30
2023-01-17T15:12:49.318Z,2.38
2023-01-17T15:15:46.559Z,2.30
2023-01-17T15:18:48.629Z,2.10
2023-01-17T15:22:05.403Z,2.15
2023-01-17T15:25:48.010Z,1.95
2023-01-17T15:28:44.208Z,2.30
2023-01-17T15:31:43.449Z,2.33
2023-01-17T15:35:17.561Z,2.45
2023-01-17T15:38:49.017Z,2.45
2023-01-17T15:41:44.466Z,2.35
2023-01-17T15:44:48.927Z,2.40
2023-01-17T15:47:51.847Z,2.30
2023-01-17T15:51:47.890Z,2.40
2023-01-17T15:55:39.678Z,2.20
2023-01-17T16:02:46.226Z,2.22
2023-01-17T16:05:38.664Z,2.22
2023-01-17T16:19:16.695Z,2.10
2023-01-17T16:29:32.630Z,2.00
2023-01-17T16:33:19.334Z,2.20
2023-01-17T16:36:40.711Z,2.30
2023-01-17T16:39:58.367Z,2.30
2023-01-17T16:43:26.581Z,2.20
2023-01-17T16:47:32.351Z,2.35
2023-01-17T16:50:19.543Z,2.38
2023-01-17T16:53:21.521Z,2.67
2023-01-17T17:26:44.365Z,2.40
2023-01-17T17:30:32.038Z,2.30
2023-01-17T17:47:49.348Z,2.20
2023-01-17T17:55:45.095Z,2.23
2023-01-17T17:58:21.775Z,2.28
2023-01-17T18:01:10.388Z,2.38
2023-01-17T18:04:24.104Z,2.13
2023-01-17T18:07:21.293Z,2.10
2023-01-17T18:09:52.915Z,2.35
2023-01-17T18:12:36.277Z,2.10
2023-01-17T18:15:13.417Z,2.20
2023-01-17T18:18:35.473Z,2.20
2023-01-17T18:21:27.239Z,2.20
2023-01-17T18:24:27.686Z,2.10
2023-01-17T18:27:16.930Z,2.25
2023-01-17T18:31:17.309Z,1.92
2023-01-17T18:37:04.913Z,2.13
2023-01-17T18:39:56.271Z,2.20
2023-01-17T18:43:15.463Z,2.15
2023-01-17T18:46:13.180Z,2.20
2023-01-17T18:49:08.895Z,2.13
2023-01-17T18:51:49.081Z,2.20
2023-01-17T18:54:21.160Z,2.30
2023-01-17T18:57:09.061Z,2.10
2023-01-17T18:59:48.889Z,2.30
2023-01-17T19:02:24.793Z,2.17
2023-01-17T19:05:17.028Z,2.35
2023-01-17T19:07:55.383Z,2.22
2023-01-17T19:10:35.855Z,2.15
2023-01-17T19:13:21.569Z,2.35
2023-01-17T19:16:03.348Z,2.35
2023-01-17T19:23:47.557Z,2.00
2023-01-17T19:26:25.181Z,2.35
2023-01-17T19:29:08.955Z,2.17
2023-01-17T19:31:48.509Z,2.65
2023-01-17T19:34:20.486Z,2.00
2023-01-17T19:36:56.217Z,2.33
2023-01-17T19:39:32.142Z,2.42
2023-01-17T19:42:20.717Z,2.38
2023-01-17T19:44:56.679Z,2.45
2023-01-17T19:47:39.749Z,2.20
2023-01-17T19:50:15.985Z,2.33
2023-01-17T19:52:46.064Z,2.22
2023-01-17T19:55:19.373Z,2.40
2023-01-17T19:58:05.995Z,2.28
2023-01-17T20:00:49.510Z,2.30
2023-01-17T20:03:41.383Z,2.05
2023-01-17T20:06:18.563Z,2.22
2023-01-17T20:09:08.216Z,2.03
2023-01-17T20:12:16.472Z,2.00
2023-01-17T20:14:48.967Z,2.13
2023-01-17T20:17:23.120Z,2.50
2023-01-17T20:19:55.901Z,2.40
2023-01-17T20:22:26.079Z,2.20
2023-01-17T20:25:03.561Z,2.50
2023-01-17T20:27:36.409Z,2.22
2023-01-17T20:30:20.258Z,2.30
2023-01-17T20:32:56.362Z,2.40
2023-01-17T20:35:37.513Z,2.33
2023-01-17T20:38:15.324Z,2.20
2023-01-17T20:40:45.158Z,2.35
2023-01-17T20:43:17.439Z,2.60
2023-01-17T20:45:56.878Z,2.17
2023-01-17T20:48:35.386Z,2.38
2023-01-17T20:51:13.230Z,2.33
2023-01-17T20:53:45.669Z,2.53
2023-01-17T20:56:18.594Z,2.38
2023-01-17T20:58:49.561Z,2.60
2023-01-17T21:01:25.031Z,2.30
2023-01-17T21:04:05.306Z,2.60
2023-01-17T21:06:47.829Z,2.20
2023-01-17T21:09:40.868Z,2.40
2023-01-17T21:13:17.993Z,2.17
2023-01-17T21:16:15.900Z,2.42
2023-01-17T21:18:48.730Z,2.13
2023-01-17T21:21:24.270Z,2.28
2023-01-17T21:24:01.972Z,2.60
2023-01-17T21:26:40.316Z,2.55
2023-01-17T21:29:13.893Z,2.30
2023-01-17T21:31:48.673Z,2.55
2023-01-17T21:34:25.384Z,2.30
2023-01-17T21:37:09.845Z,2.55
2023-01-17T21:39:43.267Z,2.45
2023-01-17T21:42:14.794Z,2.35
2023-01-17T21:44:47.632Z,2.22
2023-01-17T21:47:19.427Z,2.28
2023-01-17T21:49:48.904Z,2.30
2023-01-17T21:52:20.889Z,2.38
2023-01-17T21:55:09.508Z,2.25
2023-01-17T21:58:04.944Z,2.33
2023-01-17T22:00:42.964Z,2.17
2023-01-17T22:03:15.045Z,2.40
2023-01-17T22:05:44.966Z,2.33
2023-01-17T22:08:19.072Z,2.30
2023-01-17T22:10:49.016Z,2.67
2023-01-17T22:13:21.141Z,2.60
2023-01-17T22:16:03.277Z,3.28
2023-01-17T22:18:38.799Z,3.58
2023-01-17T22:21:15.447Z,3.10
2023-01-17T22:23:54.313Z,2.67
2023-01-17T22:26:28.993Z,2.50
2023-01-17T22:29:07.877Z,2.35
2023-01-17T22:31:38.183Z,2.33
2023-01-17T22:34:12.151Z,2.38
2023-01-17T22:36:43.721Z,2.45
2023-01-17T22:39:16.013Z,2.22
2023-01-17T22:41:45.953Z,2.22
2023-01-17T22:44:19.080Z,2.47
2023-01-17T22:46:49.599Z,2.35
2023-01-17T22:49:25.693Z,2.25
2023-01-17T22:52:00.258Z,2.50
2023-01-17T22:54:43.605Z,2.38
2023-01-17T22:57:15.678Z,2.80
2023-01-17T22:59:47.686Z,2.60
2023-01-17T23:02:20.378Z,2.35
2023-01-17T23:04:49.755Z,2.47
2023-01-17T23:07:25.294Z,2.75
2023-01-17T23:10:03.591Z,2.47
2023-01-17T23:12:36.158Z,2.35
2023-01-17T23:15:24.575Z,2.72
2023-01-17T23:18:21.503Z,2.55
2023-01-17T23:20:55.402Z,2.75
2023-01-17T23:23:25.166Z,2.75
2023-01-17T23:26:03.032Z,2.50
2023-01-17T23:28:34.319Z,2.50
2023-01-17T23:31:08.156Z,2.15
2023-01-17T23:33:37.542Z,2.17
2023-01-17T23:36:11.315Z,2.60
2023-01-17T23:38:44.817Z,2.60
2023-01-17T23:41:34.672Z,3.35
2023-01-17T23:44:04.998Z,5.40
2023-01-17T23:46:36.352Z,4.70
2023-01-17T23:49:08.699Z,3.97
